createdAt,value
2019-01-11T00:01:35.131Z,1.80
2019-01-11T00:04:38.926Z,2.87
2019-01-11T00:07:42.928Z,2.50
2019-01-11T00:10:46.935Z,2.60
2019-01-11T00:13:50.818Z,4.43
2019-01-11T00:16:54.708Z,2.93
2019-01-11T00:20:03.532Z,3.37
2019-01-11T00:23:04.209Z,2.93
2019-01-11T00:26:08.157Z,3.63
2019-01-11T00:29:12.132Z,4.37
2019-01-11T00:32:15.991Z,3.50
2019-01-11T00:35:20.064Z,3.80
2019-01-11T00:38:24.035Z,3.70
2019-01-11T00:41:27.913Z,3.47
2019-01-11T00:44:31.804Z,4.07
2019-01-11T00:47:35.693Z,4.37
2019-01-11T00:50:39.605Z,3.73
2019-01-11T00:53:43.479Z,4.87
2019-01-11T00:56:47.397Z,4.13
2019-01-11T00:59:51.201Z,3.60
2019-01-11T01:02:55.181Z,4.17
2019-01-11T01:05:59.192Z,3.70
2019-01-11T01:09:04.872Z,3.80
2019-01-11T01:12:09.196Z,3.63
2019-01-11T01:15:14.032Z,3.63
2019-01-11T01:18:18.180Z,4.57
2019-01-11T01:21:22.266Z,4.97
2019-01-11T01:24:26.165Z,4.47
2019-01-11T01:27:30.145Z,5.07
2019-01-11T01:30:34.283Z,5.53
2019-01-11T01:33:38.188Z,5.63
2019-01-11T01:36:42.188Z,6.33
2019-01-11T01:39:46.266Z,6.90
2019-01-11T01:42:50.157Z,8.10
2019-01-11T01:45:54.239Z,6.90
2019-01-11T01:48:58.369Z,7.53
2019-01-11T01:52:02.286Z,9.57
2019-01-11T01:55:07.705Z,8.90
2019-01-11T01:58:11.697Z,9.50
2019-01-11T02:01:15.568Z,9.03
2019-01-11T02:04:19.480Z,10.57
2019-01-11T02:07:23.495Z,11.23
2019-01-11T02:10:27.457Z,10.57
2019-01-11T02:13:31.330Z,10.90
2019-01-11T02:16:35.411Z,9.53
2019-01-11T02:19:39.503Z,9.83
2019-01-11T02:22:43.636Z,10.90
2019-01-11T02:25:47.522Z,10.93
2019-01-11T02:28:51.550Z,11.70
2019-01-11T02:31:55.427Z,12.50
2019-01-11T02:34:59.443Z,11.67
2019-01-11T02:38:03.781Z,11.40
2019-01-11T02:41:07.665Z,12.93
2019-01-11T02:44:11.608Z,12.93
2019-01-11T02:47:15.584Z,12.37
2019-01-11T02:50:19.481Z,13.37
2019-01-11T02:53:23.386Z,13.07
2019-01-11T02:56:27.322Z,13.83
2019-01-11T02:59:31.300Z,14.07
2019-01-11T03:02:35.308Z,11.97
2019-01-11T03:05:39.219Z,14.60
2019-01-11T03:08:43.216Z,14.53
2019-01-11T03:11:47.095Z,14.27
2019-01-11T03:14:51.183Z,12.97
2019-01-11T03:17:55.066Z,15.00
2019-01-11T03:20:58.951Z,13.93
2019-01-11T03:24:02.841Z,11.47
2019-01-11T03:27:06.764Z,11.30
2019-01-11T03:30:16.038Z,13.07
2019-01-11T03:33:19.893Z,12.87
2019-01-11T03:36:23.784Z,11.80
2019-01-11T03:39:27.673Z,12.63
2019-01-11T03:42:31.552Z,11.60
2019-01-11T03:45:35.455Z,10.10
2019-01-11T03:48:39.354Z,11.10
2019-01-11T03:51:43.238Z,10.50
2019-01-11T03:54:47.052Z,10.50
2019-01-11T03:57:51.018Z,10.30
2019-01-11T04:00:54.905Z,9.60
2019-01-11T04:03:58.820Z,10.93
2019-01-11T04:07:02.686Z,9.17
2019-01-11T04:10:09.527Z,9.43
2019-01-11T04:13:14.799Z,9.33
2019-01-11T04:16:18.725Z,9.53
2019-01-11T04:19:22.648Z,9.80
2019-01-11T04:22:31.513Z,9.93
2019-01-11T04:25:41.338Z,9.40
2019-01-11T04:28:45.320Z,8.63
2019-01-11T04:31:49.627Z,9.07
2019-01-11T04:34:53.579Z,10.00
2019-01-11T04:37:57.543Z,8.93
2019-01-11T04:41:01.425Z,9.33
2019-01-11T04:44:05.391Z,9.53
2019-01-11T04:47:09.274Z,9.53
2019-01-11T04:50:18.382Z,10.63
2019-01-11T04:53:22.391Z,10.13
2019-01-11T04:56:26.271Z,10.30
2019-01-11T04:59:30.180Z,9.83
2019-01-11T05:02:34.058Z,10.63
2019-01-11T05:05:37.975Z,9.40
2019-01-11T05:08:41.876Z,10.30
2019-01-11T05:11:45.724Z,9.30
2019-01-11T05:14:49.563Z,8.60
2019-01-11T05:17:53.403Z,10.13
2019-01-11T05:20:57.194Z,9.63
2019-01-11T05:24:01.078Z,8.23
2019-01-11T05:27:04.902Z,9.03
2019-01-11T05:30:12.402Z,7.87
2019-01-11T05:33:16.276Z,7.43
2019-01-11T05:36:20.090Z,8.17
2019-01-11T05:39:23.908Z,7.07
2019-01-11T05:42:27.760Z,7.87
2019-01-11T05:45:31.641Z,7.43
2019-01-11T05:48:35.560Z,6.47
2019-01-11T05:51:39.552Z,6.90
2019-01-11T05:54:43.445Z,6.83
2019-01-11T05:58:13.605Z,7.00
2019-01-11T06:01:17.471Z,7.63
2019-01-11T06:04:52.671Z,7.20
2019-01-11T06:08:01.270Z,7.37
2019-01-11T06:11:05.417Z,7.03
2019-01-11T06:14:09.316Z,6.27
2019-01-11T06:17:13.337Z,6.77
2019-01-11T06:20:17.678Z,7.10
2019-01-11T06:23:21.528Z,6.83
2019-01-11T06:26:25.480Z,6.33
2019-01-11T06:29:29.297Z,7.17
2019-01-11T06:32:33.111Z,5.80
2019-01-11T06:35:36.978Z,6.83
2019-01-11T06:38:40.793Z,6.70
2019-01-11T06:41:50.763Z,6.70
2019-01-11T06:44:54.969Z,6.80
2019-01-11T06:47:58.923Z,6.17
2019-01-11T06:51:02.744Z,4.83
2019-01-11T06:54:06.614Z,5.37
2019-01-11T06:57:10.678Z,5.77
2019-01-11T07:00:15.159Z,4.00
2019-01-11T07:03:18.970Z,4.03
2019-01-11T07:06:22.841Z,4.97
2019-01-11T07:09:26.756Z,4.83
2019-01-11T07:12:30.624Z,5.33
2019-01-11T07:15:34.445Z,5.13
2019-01-11T07:18:38.271Z,5.10
2019-01-11T07:21:42.152Z,4.40
2019-01-11T07:24:46.319Z,4.83
2019-01-11T07:28:02.009Z,2.80
2019-01-11T07:31:08.207Z,3.17
2019-01-11T07:34:12.089Z,3.83
2019-01-11T07:37:15.956Z,3.60
2019-01-11T07:40:19.856Z,3.67
2019-01-11T07:43:23.683Z,2.90
2019-01-11T07:46:27.649Z,2.60
2019-01-11T07:49:31.608Z,3.07
2019-01-11T07:52:35.563Z,2.83
2019-01-11T07:55:39.529Z,2.70
2019-01-11T07:58:43.529Z,2.40
2019-01-11T08:01:47.571Z,2.80
2019-01-11T08:04:51.576Z,2.60
2019-01-11T08:07:55.456Z,2.50
2019-01-11T08:10:59.275Z,2.77
2019-01-11T08:14:03.240Z,2.87
2019-01-11T08:17:07.144Z,3.00
2019-01-11T08:20:11.072Z,3.00
2019-01-11T08:23:14.965Z,2.40
2019-01-11T08:26:18.916Z,2.77
2019-01-11T08:29:22.839Z,2.47
2019-01-11T08:32:26.716Z,2.17
2019-01-11T08:35:30.624Z,2.37
2019-01-11T08:38:34.483Z,2.30
2019-01-11T08:41:38.878Z,2.27
2019-01-11T08:44:43.260Z,3.10
2019-01-11T08:47:47.251Z,2.83
2019-01-11T08:50:51.301Z,2.43
2019-01-11T08:53:55.175Z,2.57
2019-01-11T08:57:00.790Z,2.67
2019-01-11T09:00:05.987Z,2.60
2019-01-11T09:03:09.872Z,2.27
2019-01-11T09:06:13.843Z,2.60
2019-01-11T09:09:17.828Z,3.10
2019-01-11T09:12:21.756Z,2.53
2019-01-11T09:15:25.653Z,2.50
2019-01-11T09:18:43.026Z,2.70
2019-01-11T09:21:46.929Z,2.70
2019-01-11T09:24:50.810Z,2.80
2019-01-11T09:27:54.612Z,2.37
2019-01-11T09:30:58.462Z,2.40
2019-01-11T09:34:02.338Z,4.23
2019-01-11T09:37:06.313Z,1.80
2019-01-11T09:40:10.406Z,2.30
2019-01-11T09:43:14.231Z,1.43
2019-01-11T09:46:18.034Z,4.83
2019-01-11T09:49:21.860Z,1.80
2019-01-11T09:52:25.937Z,2.33
2019-01-11T09:55:29.890Z,2.80
2019-01-11T09:58:33.701Z,1.97
2019-01-11T10:01:37.599Z,1.87
2019-01-11T10:04:42.094Z,2.07
2019-01-11T10:07:45.987Z,1.83
2019-01-11T10:10:49.948Z,1.50
2019-01-11T10:13:53.795Z,1.40
2019-01-11T10:16:57.751Z,2.17
2019-01-11T10:20:01.600Z,3.63
2019-01-11T10:23:05.579Z,2.53
2019-01-11T10:26:09.611Z,3.10
2019-01-11T10:29:13.463Z,1.90
2019-01-11T10:32:17.405Z,2.70
2019-01-11T10:35:21.581Z,2.57
2019-01-11T10:38:25.485Z,2.03
2019-01-11T10:41:29.996Z,2.17
2019-01-11T10:44:33.906Z,2.27
2019-01-11T10:47:37.817Z,2.33
2019-01-11T10:50:41.640Z,1.77
2019-01-11T10:53:45.453Z,2.57
2019-01-11T10:56:49.408Z,2.63
2019-01-11T10:59:53.363Z,1.97
2019-01-11T11:02:57.718Z,3.13
2019-01-11T11:06:01.601Z,2.87
2019-01-11T11:09:07.415Z,3.00
2019-01-11T11:12:11.322Z,3.60
2019-01-11T11:15:16.430Z,3.23
2019-01-11T11:18:20.415Z,3.40
2019-01-11T11:21:24.290Z,3.23
2019-01-11T11:24:28.227Z,2.87
2019-01-11T11:27:32.254Z,3.07
2019-01-11T11:30:36.143Z,3.00
2019-01-11T11:33:40.042Z,3.30
2019-01-11T11:36:43.942Z,3.63
2019-01-11T11:39:47.849Z,2.97
2019-01-11T11:42:51.759Z,3.63
2019-01-11T11:45:55.784Z,3.10
2019-01-11T11:48:59.648Z,3.93
2019-01-11T11:52:03.560Z,4.23
2019-01-11T11:55:07.782Z,4.27
2019-01-11T11:58:11.639Z,3.70
2019-01-11T12:01:15.443Z,3.90
2019-01-11T12:04:19.344Z,3.90
2019-01-11T12:07:23.146Z,4.40
2019-01-11T12:10:27.060Z,4.83
2019-01-11T12:13:34.433Z,4.17
2019-01-11T12:16:36.697Z,4.27
2019-01-11T12:19:40.530Z,4.43
2019-01-11T12:22:44.480Z,4.67
2019-01-11T12:25:48.311Z,5.07
2019-01-11T12:28:52.192Z,4.50
2019-01-11T12:31:56.094Z,4.93
2019-01-11T12:35:00.005Z,5.30
2019-01-11T12:38:03.997Z,7.80
2019-01-11T12:41:07.868Z,7.07
2019-01-11T12:44:11.819Z,6.57
2019-01-11T12:47:15.758Z,8.27
2019-01-11T12:50:22.623Z,8.93
2019-01-11T12:53:26.513Z,6.60
2019-01-11T12:56:30.408Z,6.83
2019-01-11T12:59:34.390Z,6.67
2019-01-11T13:02:38.268Z,5.53
2019-01-11T13:05:42.249Z,5.67
2019-01-11T13:08:46.212Z,7.37
2019-01-11T13:11:50.122Z,6.77
2019-01-11T13:14:54.024Z,6.80
2019-01-11T13:17:57.903Z,5.67
2019-01-11T13:21:01.789Z,5.73
2019-01-11T13:24:05.950Z,6.40
2019-01-11T13:27:09.832Z,6.90
2019-01-11T13:30:15.705Z,5.90
2019-01-11T13:33:19.655Z,6.47
2019-01-11T13:36:23.631Z,5.97
2019-01-11T13:39:27.511Z,7.07
2019-01-11T13:42:31.480Z,6.90
2019-01-11T13:45:35.454Z,6.43
2019-01-11T13:48:39.472Z,6.00
2019-01-11T13:51:43.377Z,7.67
2019-01-11T13:54:47.269Z,7.50
2019-01-11T13:57:51.175Z,6.77
2019-01-11T14:00:55.147Z,7.40
2019-01-11T14:03:58.956Z,6.20
2019-01-11T14:07:02.865Z,7.57
2019-01-11T14:10:06.943Z,6.63
2019-01-11T14:13:10.840Z,8.03
2019-01-11T14:16:14.815Z,7.07
2019-01-11T14:19:18.645Z,6.63
2019-01-11T14:22:22.473Z,8.43
2019-01-11T14:25:26.480Z,7.00
2019-01-11T14:28:30.274Z,8.20
2019-01-11T14:31:34.277Z,7.93
2019-01-11T14:34:38.147Z,6.43
2019-01-11T14:37:42.211Z,7.77
2019-01-11T14:40:46.092Z,7.17
2019-01-11T14:43:50.274Z,8.90
2019-01-11T14:46:54.085Z,7.97
2019-01-11T14:49:57.960Z,5.73
2019-01-11T14:53:01.874Z,8.00
2019-01-11T14:56:05.854Z,8.47
2019-01-11T14:59:09.712Z,6.80
2019-01-11T15:02:13.598Z,7.60
2019-01-11T15:05:17.828Z,8.23
2019-01-11T15:08:21.611Z,7.87
2019-01-11T15:11:25.503Z,7.50
2019-01-11T15:14:29.448Z,7.93
2019-01-11T15:17:33.229Z,6.80
2019-01-11T15:20:37.117Z,8.27
2019-01-11T15:23:41.053Z,7.33
2019-01-11T15:26:44.924Z,7.23
2019-01-11T15:29:48.827Z,8.90
2019-01-11T15:32:52.807Z,7.77
2019-01-11T15:35:56.795Z,8.47
2019-01-11T15:39:00.677Z,8.27
2019-01-11T15:42:04.646Z,9.97
2019-01-11T15:45:08.608Z,9.40
2019-01-11T15:48:17.638Z,7.53
2019-01-11T15:51:24.320Z,9.13
2019-01-11T15:54:28.206Z,9.73
2019-01-11T15:57:44.388Z,8.37
2019-01-11T16:00:49.128Z,8.60
2019-01-11T16:03:53.105Z,8.83
2019-01-11T16:06:56.983Z,8.53
2019-01-11T16:10:05.995Z,10.30
2019-01-11T16:13:29.582Z,9.77
2019-01-11T16:16:47.304Z,10.23
2019-01-11T16:19:51.143Z,9.57
2019-01-11T16:22:55.022Z,10.20
2019-01-11T16:25:58.863Z,10.50
2019-01-11T16:29:02.758Z,11.53
2019-01-11T16:32:06.731Z,9.43
2019-01-11T16:35:10.672Z,9.77
2019-01-11T16:38:14.681Z,10.77
2019-01-11T16:41:18.492Z,9.10
2019-01-11T16:44:22.481Z,9.57
2019-01-11T16:47:26.392Z,10.93
2019-01-11T16:50:30.282Z,10.97
2019-01-11T16:53:34.190Z,10.00
2019-01-11T16:56:38.183Z,10.97
2019-01-11T16:59:42.037Z,11.07
2019-01-11T17:02:45.928Z,11.63
2019-01-11T17:05:49.992Z,8.53
2019-01-11T17:08:53.885Z,9.87
2019-01-11T17:11:58.338Z,8.90
2019-01-11T17:15:02.422Z,8.80
2019-01-11T17:18:06.430Z,9.70
2019-01-11T17:21:10.301Z,9.83
2019-01-11T17:24:14.387Z,8.47
2019-01-11T17:27:18.561Z,7.93
2019-01-11T17:30:22.434Z,8.90
2019-01-11T17:33:26.319Z,8.50
2019-01-11T17:36:30.208Z,8.83
2019-01-11T17:39:34.500Z,8.47
2019-01-11T17:42:38.397Z,8.03
2019-01-11T17:45:42.259Z,8.63
2019-01-11T17:48:46.175Z,8.93
2019-01-11T17:51:50.045Z,8.67
2019-01-11T17:54:54.112Z,9.10
2019-01-11T17:57:57.976Z,9.77
2019-01-11T18:01:01.958Z,7.97
2019-01-11T18:04:06.233Z,9.47
2019-01-11T18:07:10.120Z,8.73
2019-01-11T18:10:14.178Z,8.67
2019-01-11T18:13:18.036Z,8.67
2019-01-11T18:16:21.879Z,9.63
2019-01-11T18:19:25.767Z,8.93
2019-01-11T18:22:29.687Z,10.10
2019-01-11T18:25:33.569Z,11.57
2019-01-11T18:28:37.420Z,9.60
2019-01-11T18:31:41.279Z,9.30
2019-01-11T18:34:45.271Z,8.23
2019-01-11T18:37:49.142Z,9.20
2019-01-11T18:40:53.026Z,10.03
2019-01-11T18:43:57.007Z,8.07
2019-01-11T18:47:00.844Z,8.30
2019-01-11T18:50:07.730Z,8.80
2019-01-11T18:53:13.847Z,9.60
2019-01-11T18:56:17.234Z,10.17
2019-01-11T18:59:21.174Z,8.40
2019-01-11T19:02:25.009Z,9.60
2019-01-11T19:05:28.870Z,8.63
2019-01-11T19:08:32.684Z,9.23
2019-01-11T19:11:36.564Z,9.33
2019-01-11T19:14:40.371Z,10.83
2019-01-11T19:17:44.435Z,9.00
2019-01-11T19:20:48.391Z,8.07
2019-01-11T19:23:52.336Z,7.67
2019-01-11T19:26:56.319Z,7.70
2019-01-11T19:30:00.253Z,8.87
2019-01-11T19:33:04.177Z,8.37
2019-01-11T19:36:08.147Z,8.63
2019-01-11T19:39:11.958Z,8.10
2019-01-11T19:42:15.840Z,8.27
2019-01-11T19:45:20.393Z,8.67
2019-01-11T19:48:24.282Z,7.50
2019-01-11T19:51:28.168Z,8.80
2019-01-11T19:54:31.993Z,7.73
2019-01-11T19:57:36.077Z,7.67
2019-01-11T20:00:40.088Z,7.93
2019-01-11T20:03:43.970Z,6.33
2019-01-11T20:06:48.033Z,7.97
2019-01-11T20:09:52.003Z,7.17
2019-01-11T20:12:55.957Z,7.53
2019-01-11T20:15:59.896Z,7.97
2019-01-11T20:19:04.386Z,7.50
2019-01-11T20:22:08.332Z,9.07
2019-01-11T20:25:15.002Z,8.27
2019-01-11T20:28:18.950Z,7.07
2019-01-11T20:31:22.774Z,8.10
2019-01-11T20:34:27.216Z,7.57
2019-01-11T20:37:33.565Z,8.20
2019-01-11T20:40:37.546Z,7.20
2019-01-11T20:43:41.492Z,6.77
2019-01-11T20:46:45.356Z,7.00
2019-01-11T20:49:49.321Z,7.43
2019-01-11T20:52:53.303Z,7.50
2019-01-11T20:55:57.257Z,7.07
2019-01-11T20:59:01.548Z,7.20
2019-01-11T21:02:05.787Z,6.80
2019-01-11T21:05:10.047Z,7.17
2019-01-11T21:08:13.828Z,8.50
2019-01-11T21:11:17.799Z,6.73
2019-01-11T21:14:21.667Z,7.53
2019-01-11T21:17:25.552Z,7.37
2019-01-11T21:20:29.434Z,8.40
2019-01-11T21:23:33.329Z,7.40
2019-01-11T21:26:37.503Z,7.53
2019-01-11T21:29:41.368Z,7.23
2019-01-11T21:32:45.537Z,6.80
2019-01-11T21:35:49.515Z,7.10
2019-01-11T21:38:53.393Z,7.73
2019-01-11T21:41:57.264Z,7.93
2019-01-11T21:45:01.198Z,6.60
2019-01-11T21:48:05.171Z,7.73
2019-01-11T21:51:09.125Z,6.80
2019-01-11T21:54:14.616Z,7.60
2019-01-11T21:57:18.490Z,7.07
2019-01-11T22:00:31.948Z,7.60
2019-01-11T22:03:35.830Z,6.83
2019-01-11T22:06:39.795Z,6.57
2019-01-11T22:09:43.679Z,6.63
2019-01-11T22:12:47.825Z,6.47
2019-01-11T22:15:51.751Z,7.67
2019-01-11T22:18:55.646Z,6.83
2019-01-11T22:21:59.498Z,7.60
2019-01-11T22:25:03.450Z,8.47
2019-01-11T22:28:07.534Z,7.03
2019-01-11T22:31:11.332Z,7.13
2019-01-11T22:34:15.164Z,7.17
2019-01-11T22:37:19.108Z,6.70
2019-01-11T22:40:23.865Z,7.47
2019-01-11T22:43:27.746Z,7.40
2019-01-11T22:46:31.629Z,7.33
2019-01-11T22:49:35.504Z,6.47
2019-01-11T22:52:39.388Z,7.97
2019-01-11T22:55:43.215Z,8.30
2019-01-11T22:58:47.105Z,7.67
2019-01-11T23:02:14.832Z,7.63
2019-01-11T23:05:18.792Z,7.43
2019-01-11T23:08:22.891Z,7.67
2019-01-11T23:11:54.173Z,7.93
2019-01-11T23:14:57.987Z,8.23
2019-01-11T23:18:05.195Z,8.57
2019-01-11T23:21:09.648Z,7.60
2019-01-11T23:24:17.274Z,9.13
2019-01-11T23:27:19.219Z,8.80
2019-01-11T23:30:23.199Z,8.13
2019-01-11T23:33:27.079Z,7.90
2019-01-11T23:36:30.950Z,7.37
2019-01-11T23:39:34.847Z,8.27
2019-01-11T23:42:38.812Z,9.73
2019-01-11T23:45:42.728Z,7.93
2019-01-11T23:48:46.597Z,8.20
2019-01-11T23:51:50.493Z,7.00
2019-01-11T23:54:54.370Z,8.20
2019-01-11T23:57:58.289Z,7.30
